ETH0012 VHHH-RCTP
Flight info
| Callsign | ETH0012 |
|---|---|
| Flight time | N/A |
| Altitude | 39000 |
| Route | DALOL1C DALOL V631 ENVAR M750 EXTRA/N0403F290 M750 TONGA TONGA1A |
| Aircraft | A333/H-SDE3GHIJ2J3J5M1RVWXY/LB2D1 |
Departure
| Time | 2026-04-30 22:10 |
|---|---|
| Airport | Hong Kong International Airport (VHHH) |
Arrival
| Time | N/A |
|---|---|
| Airport | Taiwan Taoyuan International Airport (RCTP) |
| Time | Latitude | Longitude | Altitude | Speed | Heading |
|---|---|---|---|---|---|
| 2026-04-30 21:49 | 22.31010 | 113.91857 | 40 ft | 0 kts | 251° |
| 2026-04-30 22:00 | 22.31010 | 113.91859 | 40 ft | 2 kts | 251° |
| 2026-04-30 22:00 | 22.31018 | 113.91883 | 40 ft | 1 kts | 251° |
| 2026-04-30 22:01 | 22.31022 | 113.91894 | 40 ft | 1 kts | 255° |
| 2026-04-30 22:01 | 22.31024 | 113.91904 | 40 ft | 1 kts | 266° |
| 2026-04-30 22:01 | 22.31024 | 113.91914 | 40 ft | 1 kts | 283° |
| 2026-04-30 22:01 | 22.31021 | 113.91923 | 40 ft | 1 kts | 298° |
| 2026-04-30 22:02 | 22.31018 | 113.91930 | 40 ft | 1 kts | 312° |
| 2026-04-30 22:02 | 22.31012 | 113.91936 | 40 ft | 1 kts | 326° |
| 2026-04-30 22:02 | 22.31006 | 113.91939 | 40 ft | 0 kts | 338° |
| 2026-04-30 22:02 | 22.31001 | 113.91942 | 40 ft | 0 kts | 341° |
| 2026-04-30 22:05 | 22.31015 | 113.91937 | 40 ft | 4 kts | 345° |
| 2026-04-30 22:05 | 22.31060 | 113.91929 | 40 ft | 8 kts | 353° |
| 2026-04-30 22:05 | 22.31135 | 113.91911 | 40 ft | 13 kts | 342° |
| 2026-04-30 22:05 | 22.31237 | 113.91875 | 40 ft | 17 kts | 341° |
| 2026-04-30 22:06 | 22.31337 | 113.91836 | 40 ft | 12 kts | 340° |
| 2026-04-30 22:06 | 22.31438 | 113.91740 | 40 ft | 5 kts | 262° |
| 2026-04-30 22:06 | 22.31426 | 113.91694 | 40 ft | 7 kts | 252° |
| 2026-04-30 22:07 | 22.31407 | 113.91633 | 40 ft | 9 kts | 250° |
| 2026-04-30 22:07 | 22.31378 | 113.91544 | 40 ft | 15 kts | 251° |
| 2026-04-30 22:07 | 22.31334 | 113.91408 | 40 ft | 23 kts | 251° |
| 2026-04-30 22:07 | 22.31271 | 113.91210 | 40 ft | 32 kts | 250° |
| 2026-04-30 22:08 | 22.31186 | 113.90951 | 40 ft | 40 kts | 251° |
| 2026-04-30 22:08 | 22.31086 | 113.90639 | 40 ft | 48 kts | 251° |
| 2026-04-30 22:08 | 22.30967 | 113.90273 | 40 ft | 52 kts | 251° |
| 2026-04-30 22:08 | 22.30865 | 113.89947 | 40 ft | 43 kts | 248° |
| 2026-04-30 22:09 | 22.30850 | 113.89668 | 40 ft | 34 kts | 270° |
| 2026-04-30 22:09 | 22.30841 | 113.89452 | 40 ft | 20 kts | 272° |
| 2026-04-30 22:09 | 22.30940 | 113.89395 | 40 ft | 18 kts | 24° |
| 2026-04-30 22:09 | 22.31003 | 113.89516 | 40 ft | 19 kts | 71° |
| 2026-04-30 22:10 | 22.31061 | 113.89695 | 40 ft | 45 kts | 71° |
| 2026-04-30 22:10 | 22.31276 | 113.90361 | 40 ft | 140 kts | 71° |
| 2026-04-30 22:10 | 22.31674 | 113.91612 | 251 ft | 200 kts | 70° |
| 2026-04-30 22:10 | 22.32118 | 113.93178 | 818 ft | 238 kts | 74° |
| 2026-04-30 22:11 | 22.32721 | 113.96999 | 3613 ft | 262 kts | 81° |
| 2026-04-30 22:11 | 22.33025 | 113.98937 | 4452 ft | 269 kts | 81° |
| 2026-04-30 22:11 | 22.33357 | 114.00947 | 5221 ft | 279 kts | 80° |
| 2026-04-30 22:12 | 22.33708 | 114.03027 | 6081 ft | 285 kts | 79° |
| 2026-04-30 22:12 | 22.34064 | 114.05131 | 6880 ft | 293 kts | 79° |
| 2026-04-30 22:12 | 22.34431 | 114.07299 | 7753 ft | 297 kts | 79° |
| 2026-04-30 22:12 | 22.34801 | 114.09493 | 8538 ft | 303 kts | 79° |
| 2026-04-30 22:13 | 22.35184 | 114.11756 | 9320 ft | 308 kts | 79° |
| 2026-04-30 22:13 | 22.35569 | 114.14036 | 10050 ft | 313 kts | 79° |
| 2026-04-30 22:13 | 22.35965 | 114.16386 | 10578 ft | 326 kts | 79° |
| 2026-04-30 22:13 | 22.36382 | 114.18861 | 10913 ft | 346 kts | 79° |
| 2026-04-30 22:14 | 22.36820 | 114.21458 | 11212 ft | 364 kts | 79° |
| 2026-04-30 22:14 | 22.37283 | 114.24222 | 11459 ft | 383 kts | 79° |
| 2026-04-30 22:14 | 22.37768 | 114.27109 | 11811 ft | 396 kts | 79° |
| 2026-04-30 22:14 | 22.38257 | 114.30028 | 12451 ft | 399 kts | 79° |
| 2026-04-30 22:15 | 22.38753 | 114.32982 | 13086 ft | 401 kts | 79° |
| 2026-04-30 22:15 | 22.39253 | 114.35975 | 13672 ft | 405 kts | 79° |
| 2026-04-30 22:15 | 22.39757 | 114.38986 | 14205 ft | 410 kts | 79° |
| 2026-04-30 22:15 | 22.40263 | 114.42020 | 14759 ft | 414 kts | 79° |
| 2026-04-30 22:16 | 22.40773 | 114.45074 | 15331 ft | 417 kts | 79° |
| 2026-04-30 22:16 | 22.41288 | 114.48165 | 15854 ft | 421 kts | 79° |
| 2026-04-30 22:17 | 22.42848 | 114.57550 | 17359 ft | 431 kts | 79° |
| 2026-04-30 22:17 | 22.43379 | 114.60760 | 17837 ft | 434 kts | 79° |
| 2026-04-30 22:17 | 22.44441 | 114.67185 | 18851 ft | 438 kts | 79° |
| 2026-04-30 22:18 | 22.44976 | 114.70425 | 19302 ft | 441 kts | 79° |
| 2026-04-30 22:18 | 22.46060 | 114.77003 | 20148 ft | 447 kts | 79° |
| 2026-04-30 22:19 | 22.47149 | 114.83630 | 21016 ft | 450 kts | 79° |
| 2026-04-30 22:19 | 22.47694 | 114.86955 | 21418 ft | 453 kts | 79° |
| 2026-04-30 22:19 | 22.48796 | 114.93691 | 22151 ft | 458 kts | 79° |
| 2026-04-30 22:20 | 22.49347 | 114.97060 | 22524 ft | 460 kts | 79° |
| 2026-04-30 22:20 | 22.50465 | 115.03916 | 23194 ft | 466 kts | 79° |
| 2026-04-30 22:20 | 22.51027 | 115.07377 | 23510 ft | 468 kts | 79° |
| 2026-04-30 22:21 | 22.51588 | 115.10825 | 23828 ft | 471 kts | 79° |
| 2026-04-30 22:21 | 22.52154 | 115.14316 | 24148 ft | 474 kts | 79° |
| 2026-04-30 22:21 | 22.52722 | 115.17829 | 24439 ft | 478 kts | 79° |
| 2026-04-30 22:21 | 22.53291 | 115.21346 | 24786 ft | 479 kts | 79° |
| 2026-04-30 22:22 | 22.53867 | 115.24903 | 25110 ft | 481 kts | 79° |
| 2026-04-30 22:22 | 22.54444 | 115.28493 | 25405 ft | 484 kts | 79° |
| 2026-04-30 22:22 | 22.55028 | 115.32113 | 25676 ft | 488 kts | 79° |
| 2026-04-30 22:22 | 22.55608 | 115.35719 | 25986 ft | 490 kts | 79° |
| 2026-04-30 22:23 | 22.56187 | 115.39327 | 26341 ft | 491 kts | 79° |
| 2026-04-30 22:23 | 22.56769 | 115.42955 | 26614 ft | 494 kts | 79° |
| 2026-04-30 22:23 | 22.57355 | 115.46616 | 26929 ft | 496 kts | 79° |
| 2026-04-30 22:23 | 22.57948 | 115.50332 | 27178 ft | 499 kts | 79° |
| 2026-04-30 22:24 | 22.58535 | 115.54007 | 27451 ft | 501 kts | 79° |
| 2026-04-30 22:24 | 22.59130 | 115.57742 | 27768 ft | 503 kts | 79° |
| 2026-04-30 22:24 | 22.59719 | 115.61443 | 28059 ft | 505 kts | 79° |
| 2026-04-30 22:24 | 22.60312 | 115.65173 | 28330 ft | 507 kts | 80° |
| 2026-04-30 22:25 | 22.60908 | 115.68938 | 28591 ft | 509 kts | 80° |
| 2026-04-30 22:25 | 22.61512 | 115.72746 | 28851 ft | 511 kts | 79° |
| 2026-04-30 22:25 | 22.62105 | 115.76495 | 29097 ft | 513 kts | 79° |
| 2026-04-30 22:25 | 22.62706 | 115.80308 | 29396 ft | 513 kts | 79° |
| 2026-04-30 22:26 | 22.63902 | 115.87894 | 30278 ft | 509 kts | 79° |
| 2026-04-30 22:26 | 22.64498 | 115.91694 | 30759 ft | 506 kts | 79° |
| 2026-04-30 22:26 | 22.65083 | 115.95424 | 31156 ft | 505 kts | 79° |
| 2026-04-30 22:27 | 22.65671 | 115.99174 | 31585 ft | 504 kts | 79° |
| 2026-04-30 22:27 | 22.66252 | 116.02891 | 32054 ft | 501 kts | 79° |
| 2026-04-30 22:27 | 22.67408 | 116.10292 | 32876 ft | 500 kts | 79° |
| 2026-04-30 22:28 | 22.68561 | 116.17706 | 33637 ft | 500 kts | 79° |
| 2026-04-30 22:28 | 22.69137 | 116.21424 | 34062 ft | 499 kts | 79° |
| 2026-04-30 22:29 | 22.70865 | 116.32591 | 35179 ft | 501 kts | 79° |
| 2026-04-30 22:29 | 22.71437 | 116.36296 | 35603 ft | 500 kts | 79° |
| 2026-04-30 22:30 | 22.73716 | 116.51136 | 37077 ft | 500 kts | 80° |
| 2026-04-30 22:31 | 22.75420 | 116.62289 | 38000 ft | 501 kts | 80° |
| 2026-04-30 22:32 | 22.78254 | 116.80971 | 38022 ft | 504 kts | 80° |
| 2026-04-30 22:33 | 22.81069 | 116.99673 | 38023 ft | 504 kts | 80° |
| 2026-04-30 22:35 | 22.83858 | 117.18350 | 38026 ft | 503 kts | 80° |
| 2026-04-30 22:36 | 22.86626 | 117.37046 | 38030 ft | 503 kts | 81° |
| 2026-04-30 22:37 | 22.88834 | 117.52071 | 38031 ft | 504 kts | 80° |
| 2026-04-30 22:38 | 22.91022 | 117.67052 | 38025 ft | 504 kts | 81° |
| 2026-04-30 22:39 | 22.92664 | 117.78361 | 38021 ft | 504 kts | 81° |
| 2026-04-30 22:40 | 22.95904 | 118.00867 | 38027 ft | 504 kts | 81° |
| 2026-04-30 22:41 | 22.98577 | 118.19604 | 38030 ft | 506 kts | 81° |
| 2026-04-30 22:43 | 23.01772 | 118.42217 | 38025 ft | 507 kts | 81° |
| 2026-04-30 22:44 | 23.03898 | 118.57393 | 38022 ft | 508 kts | 81° |
| 2026-04-30 22:45 | 23.07060 | 118.80172 | 38020 ft | 511 kts | 81° |
| 2026-04-30 22:47 | 23.10219 | 119.03188 | 38019 ft | 525 kts | 81° |
| 2026-04-30 22:48 | 23.12377 | 119.19056 | 38012 ft | 536 kts | 81° |
| 2026-04-30 22:49 | 23.15629 | 119.43192 | 37055 ft | 535 kts | 81° |
| 2026-04-30 22:50 | 23.19271 | 119.58653 | 36014 ft | 532 kts | 52° |
| 2026-04-30 22:51 | 23.24634 | 119.63961 | 35499 ft | 517 kts | 23° |
| 2026-04-30 22:51 | 23.31008 | 119.67498 | 34978 ft | 517 kts | 25° |
| 2026-04-30 22:52 | 23.34126 | 119.69422 | 34689 ft | 517 kts | 26° |
| 2026-04-30 22:52 | 23.40374 | 119.73344 | 34116 ft | 517 kts | 26° |
| 2026-04-30 22:53 | 23.46620 | 119.77286 | 33552 ft | 517 kts | 26° |
| 2026-04-30 22:53 | 23.52743 | 119.81416 | 32989 ft | 520 kts | 28° |
| 2026-04-30 22:53 | 23.55790 | 119.83514 | 32728 ft | 520 kts | 28° |
| 2026-04-30 22:54 | 23.61916 | 119.87735 | 32130 ft | 522 kts | 28° |
| 2026-04-30 22:55 | 23.71016 | 119.94009 | 29868 ft | 518 kts | 29° |
| 2026-04-30 22:55 | 23.77194 | 119.98273 | 28630 ft | 535 kts | 29° |
| 2026-04-30 22:56 | 23.83338 | 120.02522 | 27095 ft | 499 kts | 30° |
| 2026-04-30 22:56 | 23.92185 | 120.08647 | 25630 ft | 492 kts | 30° |
| 2026-04-30 22:57 | 23.97942 | 120.12637 | 24506 ft | 488 kts | 30° |
| 2026-04-30 22:57 | 24.03641 | 120.16592 | 23268 ft | 479 kts | 30° |
| 2026-04-30 22:58 | 24.09194 | 120.20451 | 22005 ft | 467 kts | 30° |
| 2026-04-30 22:59 | 24.17306 | 120.26094 | 20269 ft | 456 kts | 30° |
| 2026-04-30 22:59 | 24.25294 | 120.31660 | 18584 ft | 448 kts | 30° |